createdAt,value
2018-02-10T00:01:46.430Z,30.83
2018-02-10T00:04:14.970Z,30.15
2018-02-10T00:06:43.206Z,31.10
2018-02-10T00:09:11.880Z,29.90
2018-02-10T00:11:41.721Z,31.15
2018-02-10T00:14:11.303Z,27.87
2018-02-10T00:16:40.213Z,33.58
2018-02-10T00:19:09.890Z,45.63
2018-02-10T00:21:39.498Z,33.60
2018-02-10T00:24:07.782Z,38.63
2018-02-10T00:26:38.080Z,33.50
2018-02-10T00:29:06.412Z,33.05
2018-02-10T00:31:35.991Z,35.03
2018-02-10T00:34:04.303Z,36.70
2018-02-10T00:36:34.044Z,34.85
2018-02-10T00:39:03.624Z,42.25
2018-02-10T00:41:32.543Z,41.03
2018-02-10T00:44:00.782Z,48.50
2018-02-10T00:46:30.378Z,41.80
2018-02-10T00:48:59.289Z,52.15
2018-02-10T00:51:27.516Z,53.35
2018-02-10T00:53:55.743Z,44.33
2018-02-10T00:56:24.024Z,36.85
2018-02-10T00:58:53.046Z,38.28
2018-02-10T01:01:21.285Z,37.55
2018-02-10T01:03:50.909Z,35.53
2018-02-10T01:06:19.423Z,55.85
2018-02-10T01:08:47.691Z,40.50
2018-02-10T01:11:17.319Z,38.08
2018-02-10T01:13:46.195Z,41.47
2018-02-10T01:16:14.446Z,32.97
2018-02-10T01:18:43.848Z,35.83
2018-02-10T01:21:12.079Z,38.58
2018-02-10T01:23:41.076Z,38.35
2018-02-10T01:26:09.344Z,43.63
2018-02-10T01:28:38.948Z,38.65
2018-02-10T01:31:08.419Z,39.42
2018-02-10T01:33:37.339Z,38.17
2018-02-10T01:36:05.563Z,41.90
2018-02-10T01:38:35.151Z,54.53
2018-02-10T01:41:04.077Z,49.13
2018-02-10T01:43:33.072Z,46.30
2018-02-10T01:46:02.655Z,44.67
2018-02-10T01:48:31.212Z,51.40
2018-02-10T01:50:59.448Z,52.05
2018-02-10T01:53:29.035Z,42.30
2018-02-10T01:55:57.939Z,42.50
2018-02-10T01:58:27.691Z,46.08
2018-02-10T02:00:55.920Z,43.30
2018-02-10T02:03:24.951Z,40.45
2018-02-10T02:05:54.315Z,43.67
2018-02-10T02:08:23.929Z,39.60
2018-02-10T02:10:52.848Z,37.70
2018-02-10T02:13:22.446Z,40.55
2018-02-10T02:15:51.336Z,44.03
2018-02-10T02:18:20.975Z,33.60
2018-02-10T02:20:50.470Z,42.38
2018-02-10T02:23:18.988Z,37.63
2018-02-10T02:25:48.635Z,36.70
2018-02-10T02:28:17.145Z,40.65
2018-02-10T02:30:45.394Z,38.67
2018-02-10T02:33:13.652Z,36.83
2018-02-10T02:35:41.880Z,42.17
2018-02-10T02:38:10.131Z,37.05
2018-02-10T02:40:39.528Z,39.50
2018-02-10T02:43:07.774Z,37.38
2018-02-10T02:45:36.008Z,41.13
2018-02-10T02:48:04.272Z,38.22
2018-02-10T02:50:32.900Z,40.38
2018-02-10T02:53:02.650Z,42.97
2018-02-10T02:55:30.932Z,38.00
2018-02-10T02:57:59.174Z,37.22
2018-02-10T03:00:27.419Z,39.72
2018-02-10T03:02:56.467Z,37.97
2018-02-10T03:05:24.696Z,39.40
2018-02-10T03:07:52.941Z,37.17
2018-02-10T03:10:21.222Z,47.03
2018-02-10T03:12:49.474Z,39.72
2018-02-10T03:15:17.751Z,37.13
2018-02-10T03:17:46.416Z,37.65
2018-02-10T03:20:15.430Z,38.83
2018-02-10T03:22:43.664Z,41.55
2018-02-10T03:25:12.706Z,42.65
2018-02-10T03:27:40.935Z,44.20
2018-02-10T03:30:10.318Z,37.92
2018-02-10T03:32:39.014Z,37.05
2018-02-10T03:35:08.752Z,40.95
2018-02-10T03:37:38.132Z,39.42
2018-02-10T03:40:07.186Z,38.38
2018-02-10T03:42:35.411Z,41.05
2018-02-10T03:45:04.415Z,45.25
2018-02-10T03:47:33.075Z,44.88
2018-02-10T03:50:02.815Z,41.90
2018-02-10T03:52:31.044Z,48.90
2018-02-10T03:54:59.315Z,45.63
2018-02-10T03:57:27.548Z,45.53
2018-02-10T03:59:55.779Z,58.05
2018-02-10T04:02:25.195Z,48.35
2018-02-10T04:04:53.430Z,53.33
2018-02-10T04:07:21.678Z,50.80
2018-02-10T04:09:51.324Z,50.25
2018-02-10T04:12:20.234Z,54.65
2018-02-10T04:14:49.823Z,50.20
2018-02-10T04:17:17.987Z,62.08
2018-02-10T04:19:46.998Z,56.33
2018-02-10T04:22:16.368Z,55.90
2018-02-10T04:24:46.158Z,54.40
2018-02-10T04:27:14.392Z,52.65
2018-02-10T04:29:42.634Z,55.22
2018-02-10T04:32:11.900Z,48.97
2018-02-10T04:34:41.487Z,49.83
2018-02-10T04:37:09.614Z,44.15
2018-02-10T04:39:38.258Z,57.03
2018-02-10T04:42:06.897Z,51.15
2018-02-10T04:44:35.142Z,48.87
2018-02-10T04:47:04.759Z,51.97
2018-02-10T04:49:33.640Z,49.20
2018-02-10T04:52:01.888Z,53.08
2018-02-10T04:54:30.147Z,49.88
2018-02-10T04:56:59.735Z,52.85
2018-02-10T04:59:29.210Z,44.25
2018-02-10T05:01:58.890Z,50.67
2018-02-10T05:04:28.284Z,51.20
2018-02-10T05:06:57.279Z,47.83
2018-02-10T05:09:26.311Z,54.25
2018-02-10T05:11:54.547Z,45.95
2018-02-10T05:14:22.795Z,51.15
2018-02-10T05:16:52.572Z,53.10
2018-02-10T05:19:20.815Z,48.80
2018-02-10T05:21:49.056Z,51.72
2018-02-10T05:24:17.355Z,53.50
2018-02-10T05:26:45.579Z,54.05
2018-02-10T05:29:13.815Z,49.25
2018-02-10T05:31:43.435Z,56.75
2018-02-10T05:34:11.943Z,48.17
2018-02-10T05:36:41.542Z,51.40
2018-02-10T05:39:12.485Z,48.10
2018-02-10T05:41:41.728Z,47.67
2018-02-10T05:44:09.994Z,55.55
2018-02-10T05:46:39.022Z,47.10
2018-02-10T05:49:08.042Z,45.50
2018-02-10T05:51:36.273Z,44.90
2018-02-10T05:54:04.558Z,43.28
2018-02-10T05:56:34.161Z,41.42
2018-02-10T05:59:02.676Z,40.88
2018-02-10T06:01:31.004Z,39.72
2018-02-10T06:03:59.960Z,37.15
2018-02-10T06:06:29.148Z,35.00
2018-02-10T06:08:57.420Z,33.78
2018-02-10T06:11:25.656Z,34.90
2018-02-10T06:13:55.242Z,37.47
2018-02-10T06:16:24.183Z,33.33
2018-02-10T06:18:53.774Z,35.17
2018-02-10T06:21:22.296Z,37.58
2018-02-10T06:23:51.706Z,43.22
2018-02-10T06:26:20.661Z,40.38
2018-02-10T06:28:48.903Z,43.97
2018-02-10T06:31:19.066Z,36.17
2018-02-10T06:33:47.966Z,37.78
2018-02-10T06:36:16.196Z,40.08
2018-02-10T06:38:45.835Z,44.88
2018-02-10T06:41:14.358Z,37.92
2018-02-10T06:43:43.350Z,34.55
2018-02-10T06:46:12.764Z,32.40
2018-02-10T06:48:41.005Z,34.03
2018-02-10T06:51:09.240Z,40.78
2018-02-10T06:53:37.511Z,38.58
2018-02-10T06:56:05.745Z,32.22
2018-02-10T06:58:33.979Z,40.42
2018-02-10T07:01:02.256Z,35.78
2018-02-10T07:03:30.487Z,36.17
2018-02-10T07:05:58.729Z,35.67
2018-02-10T07:08:28.530Z,39.75
2018-02-10T07:10:57.896Z,41.10
2018-02-10T07:13:26.912Z,40.25
2018-02-10T07:15:55.953Z,35.38
2018-02-10T07:18:24.198Z,42.78
2018-02-10T07:20:53.799Z,41.45
2018-02-10T07:23:22.354Z,37.83
2018-02-10T07:25:51.974Z,36.28
2018-02-10T07:28:20.459Z,39.88
2018-02-10T07:30:50.088Z,45.45
2018-02-10T07:33:18.968Z,40.75
2018-02-10T07:35:47.595Z,41.95
2018-02-10T07:38:15.836Z,42.60
2018-02-10T07:40:45.577Z,40.30
2018-02-10T07:43:15.160Z,40.40
2018-02-10T07:45:45.071Z,37.00
2018-02-10T07:48:14.540Z,39.78
2018-02-10T07:50:43.416Z,42.15
2018-02-10T07:53:11.703Z,42.70
2018-02-10T07:55:41.291Z,43.35
2018-02-10T07:58:10.783Z,41.45
2018-02-10T08:00:40.060Z,41.00
2018-02-10T08:03:09.657Z,44.72
2018-02-10T08:05:38.200Z,38.38
2018-02-10T08:08:07.800Z,42.65
2018-02-10T08:10:36.312Z,50.40
2018-02-10T08:13:06.437Z,44.92
2018-02-10T08:15:34.958Z,44.97
2018-02-10T08:18:04.557Z,42.03
2018-02-10T08:20:33.478Z,41.50
2018-02-10T08:23:03.063Z,41.37
2018-02-10T08:25:31.940Z,43.10
2018-02-10T08:28:00.224Z,45.63
2018-02-10T08:30:29.230Z,46.75
2018-02-10T08:32:58.601Z,49.70
2018-02-10T08:35:27.651Z,48.67
2018-02-10T08:37:55.890Z,43.80
2018-02-10T08:40:25.639Z,40.97
2018-02-10T08:42:53.904Z,45.17
2018-02-10T08:45:22.144Z,38.90
2018-02-10T08:47:51.739Z,40.72
2018-02-10T08:50:20.310Z,47.28
2018-02-10T08:52:48.572Z,46.80
2018-02-10T08:55:18.202Z,42.05
2018-02-10T08:57:47.096Z,39.40
2018-02-10T09:00:16.680Z,35.75
2018-02-10T09:02:45.202Z,38.85
2018-02-10T09:05:13.484Z,38.47
2018-02-10T09:07:41.724Z,36.40
2018-02-10T09:10:09.955Z,40.65
2018-02-10T09:12:39.386Z,43.28
2018-02-10T09:15:08.395Z,37.50
2018-02-10T09:17:38.002Z,48.40
2018-02-10T09:20:07.680Z,39.67
2018-02-10T09:22:37.298Z,40.20
2018-02-10T09:25:05.814Z,40.38
2018-02-10T09:27:34.843Z,43.50
2018-02-10T09:30:03.080Z,42.45
2018-02-10T09:32:32.088Z,49.80
2018-02-10T09:35:00.356Z,45.05
2018-02-10T09:37:29.356Z,42.92
2018-02-10T09:39:57.594Z,41.35
2018-02-10T09:42:27.230Z,41.85
2018-02-10T09:44:56.713Z,48.45
2018-02-10T09:47:25.603Z,43.28
2018-02-10T09:49:53.870Z,47.95
2018-02-10T09:52:22.125Z,36.05
2018-02-10T09:54:51.745Z,43.27
2018-02-10T09:57:21.415Z,40.50
2018-02-10T09:59:51.046Z,39.00
2018-02-10T10:02:19.562Z,33.83
2018-02-10T10:04:49.205Z,43.47
2018-02-10T10:07:17.744Z,39.67
2018-02-10T10:09:46.754Z,40.67
2018-02-10T10:12:15.784Z,43.65
2018-02-10T10:14:44.019Z,39.38
2018-02-10T10:17:12.266Z,46.77
2018-02-10T10:19:40.562Z,41.67
2018-02-10T10:22:08.819Z,50.12
2018-02-10T10:24:37.057Z,50.13
2018-02-10T10:27:05.738Z,57.55
2018-02-10T10:29:35.476Z,49.03
2018-02-10T10:32:05.075Z,59.60
2018-02-10T10:34:33.979Z,52.25
2018-02-10T10:37:02.994Z,49.33
2018-02-10T10:39:31.242Z,63.03
2018-02-10T10:41:59.523Z,60.42
2018-02-10T10:44:27.759Z,64.65
2018-02-10T10:46:57.515Z,59.95
2018-02-10T10:49:25.822Z,53.47
2018-02-10T10:51:54.819Z,58.87
2018-02-10T10:54:23.842Z,60.05
2018-02-10T10:56:52.164Z,62.87
2018-02-10T10:59:20.416Z,63.55
2018-02-10T11:01:48.675Z,66.20
2018-02-10T11:04:17.005Z,59.05
2018-02-10T11:06:46.699Z,64.35
2018-02-10T11:09:15.328Z,66.30
2018-02-10T11:11:44.948Z,61.93
2018-02-10T11:14:14.419Z,49.60
2018-02-10T11:16:43.663Z,55.90
2018-02-10T11:19:14.503Z,62.58
2018-02-10T11:21:43.962Z,54.73
2018-02-10T11:24:13.208Z,54.90
2018-02-10T11:26:42.845Z,47.20
2018-02-10T11:29:11.352Z,57.80
2018-02-10T11:31:40.366Z,56.83
2018-02-10T11:34:09.407Z,53.90
2018-02-10T11:36:38.070Z,50.17
2018-02-10T11:39:07.685Z,57.03
2018-02-10T11:41:36.228Z,44.13
2018-02-10T11:44:04.451Z,40.40
2018-02-10T11:46:34.055Z,43.43
2018-02-10T11:49:02.997Z,48.47
2018-02-10T11:51:31.199Z,51.00
2018-02-10T11:54:00.561Z,54.07
2018-02-10T11:56:30.166Z,47.67
2018-02-10T11:58:58.672Z,45.03
2018-02-10T12:01:28.040Z,46.60
2018-02-10T12:03:57.120Z,43.33
2018-02-10T12:06:26.856Z,49.30
2018-02-10T12:08:56.434Z,44.50
2018-02-10T12:11:26.098Z,43.80
2018-02-10T12:13:55.469Z,33.73
2018-02-10T12:16:24.126Z,31.03
2018-02-10T12:18:52.402Z,36.90
2018-02-10T12:21:20.645Z,34.13
2018-02-10T12:23:50.257Z,34.57
2018-02-10T12:26:20.258Z,34.93
2018-02-10T12:28:48.386Z,31.37
2018-02-10T12:31:17.765Z,37.93
2018-02-10T12:33:47.107Z,33.70
2018-02-10T12:36:16.476Z,44.07
2018-02-10T12:38:46.088Z,37.83
2018-02-10T12:41:14.596Z,36.67
2018-02-10T12:43:43.970Z,42.40
2018-02-10T12:46:13.016Z,36.17
2018-02-10T12:49:00.148Z,44.53
2018-02-10T12:51:29.171Z,42.40
2018-02-10T12:53:57.423Z,39.90
2018-02-10T12:56:25.674Z,39.07
2018-02-10T12:58:53.931Z,45.00
2018-02-10T13:01:23.692Z,34.40
2018-02-10T13:03:51.951Z,39.60
2018-02-10T13:06:20.907Z,34.30
2018-02-10T13:08:50.702Z,35.30
2018-02-10T13:11:20.444Z,43.20
2018-02-10T13:13:50.103Z,42.90
2018-02-10T13:16:19.232Z,51.10
2018-02-10T13:18:48.796Z,38.10
2018-02-10T13:21:17.327Z,45.53
2018-02-10T13:23:45.563Z,44.07
2018-02-10T13:26:14.564Z,40.30
2018-02-10T13:28:44.174Z,41.23
2018-02-10T13:31:13.048Z,44.57
2018-02-10T13:33:41.683Z,44.47
2018-02-10T13:36:11.451Z,43.93
2018-02-10T13:38:41.034Z,42.60
2018-02-10T13:41:09.555Z,44.83
2018-02-10T13:43:38.588Z,41.50
2018-02-10T13:46:07.591Z,52.20
2018-02-10T13:48:39.940Z,41.50
2018-02-10T13:51:08.947Z,47.47
2018-02-10T13:53:38.555Z,35.40
2018-02-10T13:56:08.105Z,35.93
2018-02-10T13:58:36.174Z,39.60
2018-02-10T14:01:05.755Z,36.43
2018-02-10T14:03:36.876Z,35.37
2018-02-10T14:06:05.500Z,36.90
2018-02-10T14:08:35.093Z,38.13
2018-02-10T14:11:04.587Z,35.13
2018-02-10T14:13:34.043Z,37.40
2018-02-10T14:16:02.919Z,37.67
2018-02-10T14:18:32.534Z,37.60
2018-02-10T14:21:01.063Z,32.77
2018-02-10T14:23:29.302Z,33.20
2018-02-10T14:25:58.351Z,38.17
2018-02-10T14:28:27.720Z,36.10
2018-02-10T14:30:55.958Z,33.43
2018-02-10T14:33:25.023Z,37.10
2018-02-10T14:35:54.392Z,38.83
2018-02-10T14:38:23.063Z,29.47
2018-02-10T14:40:52.844Z,36.53
2018-02-10T14:43:21.090Z,36.70
2018-02-10T14:45:49.342Z,32.23
2018-02-10T14:48:19.008Z,32.77
2018-02-10T14:50:48.644Z,35.67
2018-02-10T14:53:18.413Z,34.90
2018-02-10T14:55:48.959Z,36.80
2018-02-10T14:58:18.479Z,28.37
2018-02-10T15:00:47.712Z,31.70
2018-02-10T15:03:17.345Z,29.13
2018-02-10T15:05:45.848Z,31.90
2018-02-10T15:08:14.076Z,42.33
2018-02-10T15:10:42.340Z,32.10
2018-02-10T15:13:12.161Z,30.63
2018-02-10T15:15:41.728Z,44.20
2018-02-10T15:18:11.240Z,36.73
2018-02-10T15:20:40.489Z,39.40
2018-02-10T15:23:08.767Z,33.53
2018-02-10T15:25:38.367Z,30.90
2018-02-10T15:28:07.860Z,40.33
2018-02-10T15:30:48.920Z,37.00
2018-02-10T15:33:30.144Z,34.47
2018-02-10T15:35:58.376Z,35.70
2018-02-10T15:38:27.036Z,34.80
2018-02-10T15:40:55.308Z,30.60
2018-02-10T15:43:23.548Z,36.33
2018-02-10T15:45:53.259Z,33.30
2018-02-10T15:48:21.431Z,34.07
2018-02-10T15:50:49.680Z,31.07
2018-02-10T15:53:17.954Z,35.77
2018-02-10T15:55:46.220Z,31.70
2018-02-10T15:58:15.956Z,32.53
2018-02-10T16:00:45.539Z,33.97
2018-02-10T16:03:13.698Z,30.10
2018-02-10T16:05:43.271Z,29.83
2018-02-10T16:08:11.779Z,36.20
2018-02-10T16:10:40.337Z,33.53
2018-02-10T16:13:09.340Z,34.53
2018-02-10T16:15:38.363Z,33.13
2018-02-10T16:18:07.057Z,30.57
2018-02-10T16:20:35.300Z,31.33
2018-02-10T16:23:04.690Z,40.40
2018-02-10T16:25:32.970Z,35.30
2018-02-10T16:28:01.179Z,28.33
2018-02-10T16:30:29.416Z,32.97
2018-02-10T16:33:00.845Z,31.40
2018-02-10T16:35:30.306Z,23.87
2018-02-10T16:37:59.914Z,27.33
2018-02-10T16:40:28.190Z,31.23
2018-02-10T16:42:57.785Z,24.43
2018-02-10T16:45:27.262Z,31.23
2018-02-10T16:47:55.820Z,22.97
2018-02-10T16:50:24.826Z,31.07
2018-02-10T16:52:54.200Z,26.37
2018-02-10T16:55:23.990Z,29.23
2018-02-10T16:57:52.611Z,26.87
2018-02-10T17:00:22.355Z,26.27
2018-02-10T17:02:51.395Z,29.90
2018-02-10T17:05:21.162Z,26.13
2018-02-10T17:07:50.781Z,24.53
2018-02-10T17:10:18.915Z,23.77
2018-02-10T17:12:48.521Z,25.60
2018-02-10T17:15:17.427Z,28.53
2018-02-10T17:17:47.016Z,22.73
2018-02-10T17:20:15.908Z,23.30
2018-02-10T17:22:44.218Z,20.43
2018-02-10T17:25:13.796Z,23.20
2018-02-10T17:27:42.307Z,21.23
2018-02-10T17:30:10.589Z,24.63
2018-02-10T17:32:39.583Z,20.30
2018-02-10T17:35:09.236Z,20.35
2018-02-10T17:37:38.731Z,21.08
2018-02-10T17:40:08.002Z,15.50
2018-02-10T17:42:36.246Z,21.65
2018-02-10T17:45:05.871Z,19.02
2018-02-10T17:47:34.379Z,18.12
2018-02-10T17:50:03.628Z,16.87
2018-02-10T17:52:32.655Z,15.75
2018-02-10T17:55:02.388Z,13.90
2018-02-10T17:57:31.322Z,15.37
2018-02-10T18:00:00.924Z,18.08
2018-02-10T18:02:29.441Z,17.45
2018-02-10T18:04:58.123Z,21.95
2018-02-10T18:07:26.358Z,15.95
2018-02-10T18:09:55.947Z,17.08
2018-02-10T18:12:24.488Z,18.95
2018-02-10T18:14:53.488Z,19.98
2018-02-10T18:17:21.735Z,23.83
2018-02-10T18:19:49.998Z,22.70
2018-02-10T18:22:18.249Z,23.05
2018-02-10T18:24:46.540Z,17.80
2018-02-10T18:27:16.154Z,23.48
2018-02-10T18:29:45.618Z,15.85
2018-02-10T18:32:14.487Z,18.62
2018-02-10T18:34:42.775Z,19.33
2018-02-10T18:37:12.373Z,21.75
2018-02-10T18:39:41.297Z,17.87
2018-02-10T18:42:10.897Z,14.30
2018-02-10T18:44:40.364Z,18.98
2018-02-10T18:47:09.998Z,18.12
2018-02-10T18:49:39.080Z,18.95
2018-02-10T18:52:07.315Z,16.52
2018-02-10T18:54:35.543Z,15.50
2018-02-10T18:57:05.320Z,14.80
2018-02-10T18:59:34.971Z,15.48
2018-02-10T19:02:04.413Z,13.90
2018-02-10T19:04:32.560Z,13.93
2018-02-10T19:07:01.943Z,18.25
2018-02-10T19:09:30.184Z,12.77
2018-02-10T19:11:58.468Z,16.60
2018-02-10T19:14:28.220Z,19.55
2018-02-10T19:16:57.306Z,24.83
2018-02-10T19:19:25.574Z,14.30
2018-02-10T19:21:54.944Z,13.68
2018-02-10T19:24:24.532Z,20.62
2018-02-10T19:26:53.458Z,15.00
2018-02-10T19:29:23.073Z,20.77
2018-02-10T19:31:51.958Z,17.02
2018-02-10T19:34:22.283Z,20.27
2018-02-10T19:36:51.773Z,22.23
2018-02-10T19:39:21.724Z,14.93
2018-02-10T19:41:51.371Z,14.63
2018-02-10T19:44:19.702Z,16.33
2018-02-10T19:46:49.359Z,15.68
2018-02-10T19:49:17.919Z,19.98
2018-02-10T19:51:46.160Z,15.88
2018-02-10T19:54:14.800Z,17.25
2018-02-10T19:56:43.067Z,13.50
2018-02-10T19:59:12.655Z,15.80
2018-02-10T20:01:40.881Z,18.48
2018-02-10T20:04:09.658Z,18.10
2018-02-10T20:06:39.371Z,14.07
2018-02-10T20:09:08.855Z,18.58
2018-02-10T20:11:37.896Z,13.98
2018-02-10T20:14:06.957Z,16.55
2018-02-10T20:16:35.403Z,18.62
2018-02-10T20:19:05.148Z,12.88
2018-02-10T20:21:34.754Z,14.32
2018-02-10T20:24:03.575Z,17.85
2018-02-10T20:26:34.263Z,12.63
2018-02-10T20:29:03.648Z,15.38
2018-02-10T20:31:33.251Z,13.70
2018-02-10T20:34:01.784Z,15.40
2018-02-10T20:36:30.061Z,17.25
2018-02-10T20:38:58.338Z,18.80
2018-02-10T20:41:27.983Z,26.62
2018-02-10T20:43:56.742Z,11.40
2018-02-10T20:46:24.980Z,13.82
2018-02-10T20:48:54.568Z,12.77
2018-02-10T20:51:23.491Z,19.73
2018-02-10T20:53:51.737Z,13.85
2018-02-10T20:56:21.606Z,14.90
2018-02-10T20:58:51.245Z,12.25
2018-02-10T21:01:20.707Z,12.55
2018-02-10T21:03:50.166Z,12.70
2018-02-10T21:06:19.763Z,12.68
2018-02-10T21:08:47.975Z,11.55
2018-02-10T21:11:17.339Z,13.55
2018-02-10T21:13:46.391Z,11.45
2018-02-10T21:16:14.646Z,13.77
2018-02-10T21:18:44.046Z,13.40
2018-02-10T21:21:14.252Z,9.23
2018-02-10T21:23:43.335Z,7.25
2018-02-10T21:26:12.734Z,13.30
2018-02-10T21:28:41.172Z,10.68
2018-02-10T21:31:10.782Z,11.30
2018-02-10T21:33:39.284Z,16.05
2018-02-10T21:36:07.745Z,8.07
2018-02-10T21:38:37.454Z,11.70
2018-02-10T21:41:06.802Z,14.30
2018-02-10T21:43:36.519Z,11.23
2018-02-10T21:46:05.233Z,11.57
2018-02-10T21:48:36.781Z,10.70
2018-02-10T21:51:05.304Z,18.08
2018-02-10T21:53:34.888Z,33.25
2018-02-10T21:56:03.610Z,21.35
2018-02-10T21:58:31.856Z,21.48
2018-02-10T22:01:01.468Z,14.02
2018-02-10T22:03:30.026Z,26.12
2018-02-10T22:05:58.333Z,34.13
2018-02-10T22:08:26.568Z,31.05
2018-02-10T22:10:58.402Z,20.62
2018-02-10T22:13:26.913Z,22.00
2018-02-10T22:15:56.500Z,18.05
2018-02-10T22:18:25.587Z,15.98
2018-02-10T22:20:55.176Z,16.55
2018-02-10T22:23:25.624Z,14.60
2018-02-10T22:25:54.988Z,12.25
2018-02-10T22:28:23.256Z,18.67
2018-02-10T22:30:54.064Z,13.30
2018-02-10T22:33:23.535Z,16.00
2018-02-10T22:35:51.752Z,10.68
2018-02-10T22:38:21.811Z,12.07
2018-02-10T22:40:51.267Z,12.90
2018-02-10T22:43:20.781Z,12.27
2018-02-10T22:45:54.305Z,9.38
2018-02-10T22:48:22.942Z,9.57
2018-02-10T22:50:52.672Z,15.30
2018-02-10T22:53:21.144Z,13.48
2018-02-10T22:55:50.874Z,11.07
2018-02-10T22:58:20.469Z,20.90
2018-02-10T23:00:51.299Z,14.52
2018-02-10T23:03:20.755Z,10.52
2018-02-10T23:05:48.871Z,12.10
2018-02-10T23:08:17.628Z,15.65
2018-02-10T23:10:47.243Z,25.85
2018-02-10T23:13:15.564Z,20.25
2018-02-10T23:15:45.602Z,19.55
2018-02-10T23:18:13.842Z,18.95
2018-02-10T23:20:42.075Z,22.77
2018-02-10T23:23:12.490Z,14.48
2018-02-10T23:25:41.957Z,19.27
2018-02-10T23:28:10.080Z,14.05
2018-02-10T23:30:38.364Z,12.68
2018-02-10T23:33:08.081Z,16.83
2018-02-10T23:35:36.584Z,8.35
2018-02-10T23:38:06.218Z,10.70
2018-02-10T23:40:34.356Z,10.80
2018-02-10T23:43:03.939Z,15.05
2018-02-10T23:45:32.477Z,13.73
2018-02-10T23:48:02.071Z,16.85
2018-02-10T23:50:30.567Z,19.33
2018-02-10T23:52:58.840Z,12.45
2018-02-10T23:55:27.080Z,12.13
2018-02-10T23:57:56.672Z,14.57
